Time;durP1;ratioP1;P1;durP2;ratioP2;P2;SDS_P1;SDS_P2;PMS_P1;PMS_P2;Temp;Humidity;BMP_temperature;BMP_pressure;BME280_temperature;BME280_humidity;BME280_pressure;Samples;Min_cycle;Max_cycle;Signal;HPM_P1;HPM_P2
2022/05/13 00:01:55;;;;;;;;;;;13.70;98.30;;;;;;5093077;27;39415;-58
2022/05/13 00:04:22;;;;;;;;;;;13.70;98.40;;;;;;5092015;27;37961;-58
2022/05/13 00:06:49;;;;;;;;;;;13.70;98.30;;;;;;5091854;27;38641;-57
2022/05/13 00:09:16;;;;;;;;;;;13.70;98.30;;;;;;5094129;27;36894;-58
2022/05/13 00:11:43;;;;;;;;;;;13.60;98.40;;;;;;5093144;27;38759;-58
2022/05/13 00:14:12;;;;;;;;;;;13.70;98.10;;;;;;5092868;27;38148;-58
2022/05/13 00:16:39;;;;;;;;;;;13.70;98.10;;;;;;5093297;27;36992;-58
2022/05/13 00:19:08;;;;;;;;;;;13.70;98.30;;;;;;5092581;27;36062;-58
2022/05/13 00:21:35;;;;;;;;;;;13.70;98.40;;;;;;5091959;27;37884;-58
2022/05/13 00:24:02;;;;;;;;;;;13.70;98.40;;;;;;5093933;27;36290;-58
2022/05/13 00:26:29;;;;;;;;;;;13.60;98.40;;;;;;5091860;27;37347;-58
2022/05/13 00:28:56;;;;;;;;;;;13.60;98.60;;;;;;5092805;27;36347;-58
2022/05/13 00:31:25;;;;;;;;;;;13.60;98.70;;;;;;5092868;27;37688;-58
2022/05/13 00:33:52;;;;;;;;;;;13.60;98.70;;;;;;5092295;27;38612;-58
2022/05/13 00:36:19;;;;;;;;;;;13.60;98.70;;;;;;5095553;27;35784;-58
2022/05/13 00:38:47;;;;;;;;;;;13.60;98.90;;;;;;5095362;27;37915;-58
2022/05/13 00:41:14;;;;;;;;;;;13.60;98.70;;;;;;5096620;27;38239;-58
2022/05/13 00:43:44;;;;;;;;;;;13.60;99.00;;;;;;5097089;27;37693;-58
2022/05/13 00:46:11;;;;;;;;;;;13.60;99.10;;;;;;5096619;27;38736;-58
2022/05/13 00:48:40;;;;;;;;;;;13.60;99.30;;;;;;5091832;27;35162;-58
2022/05/13 00:51:08;;;;;;;;;;;13.60;99.30;;;;;;5095744;27;36495;-58
2022/05/13 00:53:36;;;;;;;;;;;13.60;99.40;;;;;;5096714;27;36867;-58
2022/05/13 00:56:03;;;;;;;;;;;13.60;99.60;;;;;;5096359;27;37623;-58
2022/05/13 00:58:32;;;;;;;;;;;13.70;99.40;;;;;;5096536;27;36149;-58
2022/05/13 01:00:59;;;;;;;;;;;13.60;99.50;;;;;;5096233;27;37827;-58
2022/05/13 01:03:26;;;;;;;;;;;13.60;99.60;;;;;;5096087;27;37643;-58
2022/05/13 01:05:57;;;;;;;;;;;13.70;99.60;;;;;;5096423;27;37424;-58
2022/05/13 01:08:24;;;;;;;;;;;13.70;99.60;;;;;;5094667;27;36178;-58
2022/05/13 01:10:51;;;;;;;;;;;13.60;99.70;;;;;;5095364;27;36517;-58
2022/05/13 01:13:22;;;;;;;;;;;13.70;99.80;;;;;;5095649;27;38098;-58
2022/05/13 01:15:51;;;;;;;;;;;13.70;99.80;;;;;;5095830;27;38102;-58
2022/05/13 01:18:24;;;;;;;;;;;13.70;99.80;;;;;;5095097;27;36300;-58
2022/05/13 01:20:51;;;;;;;;;;;13.70;99.80;;;;;;5096329;27;39910;-58
2022/05/13 01:23:20;;;;;;;;;;;13.70;99.90;;;;;;5094975;27;38029;-58
2022/05/13 01:25:49;;;;;;;;;;;13.70;99.70;;;;;;5096022;27;37361;-58
2022/05/13 01:28:18;;;;;;;;;;;13.70;99.80;;;;;;5094232;27;36963;-58
2022/05/13 01:30:46;;;;;;;;;;;13.60;99.90;;;;;;5095505;27;37162;-58
2022/05/13 01:33:14;;;;;;;;;;;13.60;99.90;;;;;;5094929;27;37792;-57
2022/05/13 01:35:42;;;;;;;;;;;13.60;99.90;;;;;;5095957;27;38051;-58
2022/05/13 01:38:09;;;;;;;;;;;13.60;99.90;;;;;;5094630;27;38145;-57
2022/05/13 01:40:38;;;;;;;;;;;13.60;99.90;;;;;;5095110;27;35452;-58
2022/05/13 01:43:05;;;;;;;;;;;13.60;99.90;;;;;;5095421;27;37888;-57
2022/05/13 01:45:32;;;;;;;;;;;13.60;99.90;;;;;;5094843;27;39300;-58
2022/05/13 01:47:59;;;;;;;;;;;13.60;99.90;;;;;;5093023;27;35947;-58
2022/05/13 01:50:27;;;;;;;;;;;13.60;99.90;;;;;;5095211;27;37971;-57
2022/05/13 01:52:54;;;;;;;;;;;13.60;99.90;;;;;;5094055;27;39011;-57
2022/05/13 01:55:21;;;;;;;;;;;13.60;99.90;;;;;;5095719;27;35928;-57
2022/05/13 01:57:50;;;;;;;;;;;13.60;99.90;;;;;;5095427;27;36309;-57
2022/05/13 02:00:17;;;;;;;;;;;13.60;99.90;;;;;;5094488;27;37821;-57
2022/05/13 02:05:28;;;;;;;;;;;13.60;99.90;;;;;;5083846;27;37717;-57
2022/05/13 02:07:55;;;;;;;;;;;13.60;99.90;;;;;;5083936;27;35869;-56
2022/05/13 02:10:22;;;;;;;;;;;13.60;99.90;;;;;;5094674;27;38396;-57
2022/05/13 02:12:51;;;;;;;;;;;13.60;99.90;;;;;;5095093;27;37756;-56
2022/05/13 02:15:18;;;;;;;;;;;13.60;99.90;;;;;;5094984;27;38023;-57
2022/05/13 02:17:45;;;;;;;;;;;13.60;99.90;;;;;;5094453;27;35672;-56
2022/05/13 02:20:13;;;;;;;;;;;13.60;99.90;;;;;;5094520;27;36612;-57
2022/05/13 02:22:40;;;;;;;;;;;13.60;99.90;;;;;;5094273;27;37177;-57
2022/05/13 02:25:07;;;;;;;;;;;13.60;99.90;;;;;;5095179;27;37887;-57
2022/05/13 02:27:35;;;;;;;;;;;13.60;99.90;;;;;;5096034;27;36299;-57
2022/05/13 02:30:04;;;;;;;;;;;13.70;99.90;;;;;;5095119;27;38285;-57
2022/05/13 02:32:31;;;;;;;;;;;13.70;99.90;;;;;;5093733;27;38328;-57
2022/05/13 02:34:58;;;;;;;;;;;13.70;99.90;;;;;;5093157;27;37262;-57
2022/05/13 02:37:26;;;;;;;;;;;13.70;99.90;;;;;;5093305;27;37083;-56
2022/05/13 02:39:53;;;;;;;;;;;13.70;99.90;;;;;;5095181;27;39982;-56
2022/05/13 02:42:20;;;;;;;;;;;13.70;99.90;;;;;;5093327;27;36656;-57
2022/05/13 02:44:47;;;;;;;;;;;13.70;99.90;;;;;;5093095;27;38226;-57
2022/05/13 02:47:15;;;;;;;;;;;13.70;99.90;;;;;;5092922;27;35261;-57
2022/05/13 02:49:42;;;;;;;;;;;13.70;99.90;;;;;;5092861;27;38069;-57
2022/05/13 02:52:10;;;;;;;;;;;13.70;99.90;;;;;;5091224;27;37982;-57
2022/05/13 02:54:37;;;;;;;;;;;13.70;99.90;;;;;;5093542;27;37578;-57
2022/05/13 02:57:05;;;;;;;;;;;13.70;99.90;;;;;;5094351;27;35132;-57
2022/05/13 02:59:32;;;;;;;;;;;13.60;99.90;;;;;;5093640;27;37297;-57
2022/05/13 03:02:02;;;;;;;;;;;13.70;99.90;;;;;;5094065;27;39435;-57
2022/05/13 03:04:30;;;;;;;;;;;13.60;99.90;;;;;;5092904;27;39036;-57
2022/05/13 03:06:57;;;;;;;;;;;13.60;99.90;;;;;;5092679;27;36450;-57
2022/05/13 03:09:24;;;;;;;;;;;13.60;99.90;;;;;;5094567;27;36566;-57
2022/05/13 03:11:52;;;;;;;;;;;13.60;99.90;;;;;;5094490;27;38484;-57
2022/05/13 03:14:19;;;;;;;;;;;13.60;99.90;;;;;;5094076;27;38248;-57
2022/05/13 03:16:46;;;;;;;;;;;13.60;99.90;;;;;;5094145;27;35779;-57
2022/05/13 03:19:13;;;;;;;;;;;13.60;99.90;;;;;;5093196;27;37749;-57
2022/05/13 03:21:42;;;;;;;;;;;13.60;99.90;;;;;;5093887;27;36719;-57
2022/05/13 03:24:09;;;;;;;;;;;13.60;99.90;;;;;;5093792;27;37175;-57
2022/05/13 03:26:36;;;;;;;;;;;13.60;99.90;;;;;;5094846;27;34664;-57
2022/05/13 03:29:04;;;;;;;;;;;13.60;99.90;;;;;;5093947;27;36551;-56
2022/05/13 03:31:31;;;;;;;;;;;13.60;99.90;;;;;;5093358;27;38729;-57
2022/05/13 03:33:59;;;;;;;;;;;13.60;99.90;;;;;;5092680;27;37106;-56
2022/05/13 03:36:26;;;;;;;;;;;13.50;99.90;;;;;;5093952;27;35070;-57
2022/05/13 03:38:54;;;;;;;;;;;13.60;99.90;;;;;;5093181;27;38334;-57
2022/05/13 03:41:21;;;;;;;;;;;13.60;99.90;;;;;;5093281;27;38082;-57
2022/05/13 03:43:48;;;;;;;;;;;13.60;99.90;;;;;;5093159;27;36245;-56
2022/05/13 03:46:15;;;;;;;;;;;13.60;99.90;;;;;;5093702;27;38455;-57
2022/05/13 03:48:43;;;;;;;;;;;13.60;99.90;;;;;;5093242;27;37700;-57
2022/05/13 03:51:10;;;;;;;;;;;13.60;99.90;;;;;;5093720;27;37654;-56
2022/05/13 03:53:38;;;;;;;;;;;13.60;99.90;;;;;;5093514;27;37425;-57
2022/05/13 03:56:07;;;;;;;;;;;13.60;99.90;;;;;;5093912;27;35181;-57
2022/05/13 03:58:34;;;;;;;;;;;13.60;99.90;;;;;;5094142;27;39748;-57
2022/05/13 04:01:02;;;;;;;;;;;13.70;99.90;;;;;;5092603;27;39255;-57
2022/05/13 04:03:29;;;;;;;;;;;13.70;99.90;;;;;;5092993;27;37119;-57
2022/05/13 04:08:59;;;;;;;;;;;13.70;99.90;;;;;;5093044;27;40075;-57
2022/05/13 04:11:30;;;;;;;;;;;13.70;99.90;;;;;;5096164;27;37819;-56
2022/05/13 04:16:43;;;;;;;;;;;13.70;99.90;;;;;;5096130;27;37715;-57
2022/05/13 04:19:11;;;;;;;;;;;13.70;99.90;;;;;;5095139;27;38540;-56
2022/05/13 04:21:39;;;;;;;;;;;13.60;99.90;;;;;;5094950;27;37547;-57
2022/05/13 04:24:07;;;;;;;;;;;13.70;99.90;;;;;;5096801;27;38008;-57
2022/05/13 04:26:36;;;;;;;;;;;13.70;99.90;;;;;;5095803;27;36760;-56
2022/05/13 04:29:03;;;;;;;;;;;13.70;99.90;;;;;;5096788;27;37468;-56
2022/05/13 04:31:31;;;;;;;;;;;13.70;99.90;;;;;;5097094;27;39973;-57
2022/05/13 04:33:59;;;;;;;;;;;13.70;99.90;;;;;;5096262;27;37101;-57
2022/05/13 04:36:27;;;;;;;;;;;13.70;99.90;;;;;;5096463;27;36581;-56
2022/05/13 04:38:54;;;;;;;;;;;13.70;99.90;;;;;;5095726;27;36474;-57
2022/05/13 04:44:09;;;;;;;;;;;13.70;99.90;;;;;;5095771;27;38496;-57
2022/05/13 04:46:37;;;;;;;;;;;13.70;99.90;;;;;;5094688;27;36181;-56
2022/05/13 04:49:04;;;;;;;;;;;13.70;99.90;;;;;;5094579;27;37796;-57
2022/05/13 04:51:31;;;;;;;;;;;13.80;99.90;;;;;;5095789;27;38637;-57
2022/05/13 04:53:58;;;;;;;;;;;13.70;99.90;;;;;;5095520;27;37029;-57
2022/05/13 04:56:26;;;;;;;;;;;13.70;99.90;;;;;;5096509;27;35151;-57
2022/05/13 04:58:53;;;;;;;;;;;13.80;99.90;;;;;;5096303;27;39469;-57
2022/05/13 05:01:22;;;;;;;;;;;13.80;99.90;;;;;;5095672;27;37943;-56
2022/05/13 05:03:50;;;;;;;;;;;13.80;99.90;;;;;;5095264;27;38612;-57
2022/05/13 05:06:18;;;;;;;;;;;13.80;99.90;;;;;;5095807;27;35200;-57
2022/05/13 05:08:47;;;;;;;;;;;13.80;99.90;;;;;;5094643;27;38412;-57
2022/05/13 05:11:15;;;;;;;;;;;13.80;99.90;;;;;;5095711;27;40112;-57
2022/05/13 05:13:43;;;;;;;;;;;13.80;99.90;;;;;;5095443;27;36027;-57
2022/05/13 05:16:11;;;;;;;;;;;13.90;99.90;;;;;;5095768;27;36048;-57
2022/05/13 05:18:40;;;;;;;;;;;13.90;99.90;;;;;;5095088;27;39859;-57
2022/05/13 05:21:08;;;;;;;;;;;13.90;99.90;;;;;;5093611;27;37859;-57
2022/05/13 05:23:36;;;;;;;;;;;13.90;99.80;;;;;;5093443;27;37300;-57
2022/05/13 05:26:03;;;;;;;;;;;14.00;99.60;;;;;;5096038;27;36075;-57
2022/05/13 05:28:32;;;;;;;;;;;14.00;99.60;;;;;;5096051;27;37705;-57
2022/05/13 05:31:00;;;;;;;;;;;14.00;99.30;;;;;;5095046;27;36763;-56
2022/05/13 05:33:27;;;;;;;;;;;14.00;99.30;;;;;;5093583;27;38578;-56
2022/05/13 05:35:56;;;;;;;;;;;14.00;99.40;;;;;;5095574;27;36601;-57
2022/05/13 05:38:23;;;;;;;;;;;14.10;99.30;;;;;;5094985;27;38251;-57
2022/05/13 05:40:51;;;;;;;;;;;14.10;99.30;;;;;;5095223;27;38196;-57
2022/05/13 05:43:19;;;;;;;;;;;14.10;99.00;;;;;;5094068;27;38133;-57
2022/05/13 05:45:46;;;;;;;;;;;14.10;98.50;;;;;;5095816;27;37012;-57
2022/05/13 05:48:14;;;;;;;;;;;14.10;98.60;;;;;;5094282;27;37845;-57
2022/05/13 05:50:41;;;;;;;;;;;14.10;98.30;;;;;;5093410;27;37913;-57
2022/05/13 05:53:09;;;;;;;;;;;14.10;98.20;;;;;;5093816;27;37305;-57
2022/05/13 05:58:21;;;;;;;;;;;14.10;98.20;;;;;;5094786;27;37502;-56
2022/05/13 06:00:49;;;;;;;;;;;14.10;98.40;;;;;;5093472;27;38073;-57
2022/05/13 06:03:16;;;;;;;;;;;14.10;98.50;;;;;;5093353;27;38181;-57
2022/05/13 06:05:44;;;;;;;;;;;14.10;98.20;;;;;;5094120;27;34696;-56
2022/05/13 06:08:12;;;;;;;;;;;14.10;98.50;;;;;;5093118;27;37842;-57
2022/05/13 06:10:39;;;;;;;;;;;14.10;98.10;;;;;;5092396;27;38172;-57
2022/05/13 06:13:07;;;;;;;;;;;14.10;98.00;;;;;;5092230;27;37406;-57
2022/05/13 06:15:34;;;;;;;;;;;14.10;98.40;;;;;;5093448;27;36260;-56
2022/05/13 06:18:01;;;;;;;;;;;14.10;98.20;;;;;;5092090;27;39722;-56
2022/05/13 06:20:29;;;;;;;;;;;14.20;98.40;;;;;;5091846;27;37505;-57
2022/05/13 06:22:56;;;;;;;;;;;14.20;98.00;;;;;;5093004;27;36685;-57
2022/05/13 06:25:25;;;;;;;;;;;14.20;97.80;;;;;;5094079;27;36481;-57
2022/05/13 06:27:53;;;;;;;;;;;14.20;97.90;;;;;;5093322;27;38595;-57
2022/05/13 06:30:22;;;;;;;;;;;14.20;97.90;;;;;;5093946;27;38871;-57
2022/05/13 06:32:49;;;;;;;;;;;14.20;97.90;;;;;;5091833;27;37278;-56
2022/05/13 06:35:16;;;;;;;;;;;14.20;98.10;;;;;;5092229;27;36473;-57
2022/05/13 06:37:43;;;;;;;;;;;14.30;97.90;;;;;;5091285;27;37794;-57
2022/05/13 06:40:11;;;;;;;;;;;14.30;97.80;;;;;;5091802;27;36827;-57
2022/05/13 06:42:39;;;;;;;;;;;14.30;97.60;;;;;;5093764;27;40082;-57
2022/05/13 06:45:09;;;;;;;;;;;14.30;97.90;;;;;;5094146;27;35856;-57
2022/05/13 06:47:36;;;;;;;;;;;14.40;97.90;;;;;;5092696;27;36455;-57
2022/05/13 06:50:04;;;;;;;;;;;14.40;97.60;;;;;;5093659;27;40203;-57
2022/05/13 06:52:31;;;;;;;;;;;14.40;97.50;;;;;;5093440;27;37487;-57
2022/05/13 06:54:59;;;;;;;;;;;14.50;97.50;;;;;;5094876;27;35350;-58
2022/05/13 06:57:26;;;;;;;;;;;14.50;97.40;;;;;;5092846;27;37687;-57
2022/05/13 06:59:54;;;;;;;;;;;14.60;97.00;;;;;;5091528;27;38432;-58
2022/05/13 07:02:23;;;;;;;;;;;14.60;96.90;;;;;;5087059;27;37320;-57
2022/05/13 07:04:50;;;;;;;;;;;14.60;96.70;;;;;;5086879;27;37111;-57
2022/05/13 07:07:17;;;;;;;;;;;14.70;96.80;;;;;;5086087;27;37449;-57
2022/05/13 07:09:44;;;;;;;;;;;14.70;96.50;;;;;;5072360;27;36693;-58
2022/05/13 07:12:12;;;;;;;;;;;14.70;96.90;;;;;;5081760;27;35948;-58
2022/05/13 07:14:39;;;;;;;;;;;14.70;97.10;;;;;;5084345;27;36491;-58
2022/05/13 07:17:07;;;;;;;;;;;14.80;96.50;;;;;;5084647;27;37525;-57
2022/05/13 07:19:34;;;;;;;;;;;14.90;96.60;;;;;;5084257;27;36961;-58
2022/05/13 07:22:01;;;;;;;;;;;15.00;95.90;;;;;;5084420;27;37040;-58
2022/05/13 07:24:28;;;;;;;;;;;15.00;95.90;;;;;;5085673;27;36135;-57
2022/05/13 07:26:55;;;;;;;;;;;15.20;96.80;;;;;;5085523;27;39325;-58
2022/05/13 07:29:23;;;;;;;;;;;15.40;96.10;;;;;;5081523;27;38204;-57
2022/05/13 07:31:50;;;;;;;;;;;15.60;95.90;;;;;;5080730;27;38290;-58
2022/05/13 07:34:18;;;;;;;;;;;15.90;95.60;;;;;;5080019;27;36597;-58
2022/05/13 07:36:46;;;;;;;;;;;16.00;95.00;;;;;;5081487;27;37571;-57
2022/05/13 07:41:58;;;;;;;;;;;16.40;94.80;;;;;;5087594;27;39456;-61
2022/05/13 07:44:25;;;;;;;;;;;16.60;94.10;;;;;;5085850;27;38113;-62
2022/05/13 07:46:52;;;;;;;;;;;16.70;94.20;;;;;;5085732;27;37855;-62
2022/05/13 07:49:21;;;;;;;;;;;16.80;93.30;;;;;;5083626;27;39025;-61
2022/05/13 07:51:48;;;;;;;;;;;16.80;92.50;;;;;;5085124;27;36069;-62
2022/05/13 07:54:15;;;;;;;;;;;16.60;92.20;;;;;;5085897;27;37114;-61
2022/05/13 07:56:42;;;;;;;;;;;16.50;93.00;;;;;;5086507;27;37695;-62
2022/05/13 07:59:09;;;;;;;;;;;16.70;94.00;;;;;;5084855;27;37976;-62
2022/05/13 08:01:36;;;;;;;;;;;16.80;93.30;;;;;;5082521;27;37395;-62
2022/05/13 08:04:03;;;;;;;;;;;16.70;91.60;;;;;;5081605;27;35827;-62
2022/05/13 08:06:32;;;;;;;;;;;16.50;91.80;;;;;;5085075;27;39006;-62
2022/05/13 08:08:59;;;;;;;;;;;16.30;92.00;;;;;;5084544;27;38820;-61
2022/05/13 08:11:28;;;;;;;;;;;16.20;92.00;;;;;;5087746;27;36940;-61
2022/05/13 08:13:56;;;;;;;;;;;16.10;92.40;;;;;;5086713;27;36598;-61
2022/05/13 08:16:26;;;;;;;;;;;16.00;92.30;;;;;;5085072;27;38553;-61
2022/05/13 08:18:53;;;;;;;;;;;15.80;92.50;;;;;;5085285;27;37851;-61
2022/05/13 08:21:21;;;;;;;;;;;15.70;93.40;;;;;;5085425;27;37990;-61
2022/05/13 08:23:50;;;;;;;;;;;15.90;94.50;;;;;;5084593;27;35672;-61
2022/05/13 08:26:17;;;;;;;;;;;16.00;93.40;;;;;;5087031;27;36493;-62
2022/05/13 08:28:45;;;;;;;;;;;16.10;93.10;;;;;;5081756;27;38192;-62
2022/05/13 08:31:13;;;;;;;;;;;16.00;92.80;;;;;;5082469;27;37732;-62
2022/05/13 08:33:40;;;;;;;;;;;16.00;93.20;;;;;;5083650;27;36602;-62
2022/05/13 08:36:08;;;;;;;;;;;16.10;94.60;;;;;;5083142;27;38039;-62
2022/05/13 08:38:37;;;;;;;;;;;16.30;93.50;;;;;;5081978;27;38167;-62
2022/05/13 08:41:18;;;;;;;;;;;16.50;93.50;;;;;;5083613;27;37349;-61
2022/05/13 08:43:47;;;;;;;;;;;16.60;92.10;;;;;;5085900;27;37008;-62
2022/05/13 08:46:21;;;;;;;;;;;16.50;92.00;;;;;;5086837;27;38273;-61
2022/05/13 08:48:53;;;;;;;;;;;16.40;92.30;;;;;;5086431;27;37848;-61
2022/05/13 08:51:27;;;;;;;;;;;16.20;92.20;;;;;;5084357;27;36316;-61
2022/05/13 08:53:58;;;;;;;;;;;16.10;91.90;;;;;;5085444;27;36488;-61
2022/05/13 08:56:27;;;;;;;;;;;16.00;92.00;;;;;;5085323;27;38477;-62
2022/05/13 08:58:57;;;;;;;;;;;16.30;93.20;;;;;;5084767;27;37420;-62
2022/05/13 09:01:26;;;;;;;;;;;16.60;93.50;;;;;;5085465;27;37060;-61
2022/05/13 09:03:55;;;;;;;;;;;16.80;92.60;;;;;;5088274;27;37507;-62
2022/05/13 09:06:27;;;;;;;;;;;16.90;91.80;;;;;;5086232;27;37778;-62
2022/05/13 09:08:54;;;;;;;;;;;16.90;91.00;;;;;;5087842;27;36948;-63
2022/05/13 09:11:25;;;;;;;;;;;16.90;91.90;;;;;;5089303;27;37194;-62
2022/05/13 09:14:00;;;;;;;;;;;17.10;92.10;;;;;;5086220;27;35232;-62
2022/05/13 09:16:32;;;;;;;;;;;17.20;91.60;;;;;;5086694;27;38077;-62
2022/05/13 09:19:03;;;;;;;;;;;17.10;90.00;;;;;;5083803;27;38124;-62
2022/05/13 09:21:30;;;;;;;;;;;16.90;89.70;;;;;;5087020;27;37273;-62
2022/05/13 09:23:58;;;;;;;;;;;16.70;89.60;;;;;;5086575;27;38062;-62
2022/05/13 09:26:26;;;;;;;;;;;16.60;91.10;;;;;;5088300;27;39218;-62
2022/05/13 09:29:05;;;;;;;;;;;16.80;91.60;;;;;;5090533;27;37810;-62
2022/05/13 09:31:33;;;;;;;;;;;16.90;91.00;;;;;;5088730;27;36039;-62
2022/05/13 09:34:00;;;;;;;;;;;16.90;90.60;;;;;;5088611;27;34993;-62
2022/05/13 09:36:31;;;;;;;;;;;16.80;90.40;;;;;;5087406;27;38623;-62
2022/05/13 09:38:59;;;;;;;;;;;16.70;91.00;;;;;;5087927;27;37786;-62
2022/05/13 09:41:27;;;;;;;;;;;16.60;90.70;;;;;;5089993;27;36890;-62
2022/05/13 09:43:56;;;;;;;;;;;16.60;90.20;;;;;;5089867;27;37360;-62
2022/05/13 09:46:32;;;;;;;;;;;16.50;90.60;;;;;;5089999;27;36353;-62
2022/05/13 09:49:02;;;;;;;;;;;16.50;90.70;;;;;;5087606;27;38852;-61
2022/05/13 09:51:32;;;;;;;;;;;16.40;90.20;;;;;;5088096;27;39185;-62
2022/05/13 09:54:00;;;;;;;;;;;16.40;90.60;;;;;;5089185;27;36847;-62
2022/05/13 09:56:34;;;;;;;;;;;16.30;91.00;;;;;;5089113;27;36471;-61
2022/05/13 09:59:04;;;;;;;;;;;16.30;90.30;;;;;;5089283;27;37850;-62
2022/05/13 10:01:33;;;;;;;;;;;16.20;91.00;;;;;;5087915;27;37856;-62
2022/05/13 10:04:08;;;;;;;;;;;16.30;91.70;;;;;;5087175;27;36332;-62
2022/05/13 10:06:36;;;;;;;;;;;16.30;91.80;;;;;;5088526;27;37784;-62
2022/05/13 10:14:34;;;;;;;;;;;17.00;92.90;;;;;;5095673;27;37352;-62
2022/05/13 10:17:05;;;;;;;;;;;17.40;92.00;;;;;;5095271;27;38545;-63
2022/05/13 10:19:35;;;;;;;;;;;17.80;92.10;;;;;;5091767;27;38211;-63
2022/05/13 10:22:05;;;;;;;;;;;18.10;91.30;;;;;;5091954;27;37279;-63
2022/05/13 10:24:35;;;;;;;;;;;18.20;89.30;;;;;;5093621;27;37496;-63
2022/05/13 10:27:03;;;;;;;;;;;18.00;87.30;;;;;;5093607;27;38009;-63
2022/05/13 10:29:33;;;;;;;;;;;17.80;86.60;;;;;;5094687;27;37911;-63
2022/05/13 10:32:01;;;;;;;;;;;17.70;87.10;;;;;;5093244;27;37889;-63
2022/05/13 10:34:31;;;;;;;;;;;17.70;89.00;;;;;;5093684;27;35023;-63
2022/05/13 10:37:01;;;;;;;;;;;18.00;90.20;;;;;;5094173;27;38757;-63
2022/05/13 10:39:32;;;;;;;;;;;18.10;88.80;;;;;;5093754;27;38362;-63
2022/05/13 10:42:00;;;;;;;;;;;18.00;86.30;;;;;;5093641;27;38113;-62
2022/05/13 10:44:32;;;;;;;;;;;17.90;84.80;;;;;;5094969;27;35758;-63
2022/05/13 10:47:00;;;;;;;;;;;17.70;83.90;;;;;;5093058;27;37884;-62
2022/05/13 10:49:30;;;;;;;;;;;17.50;84.50;;;;;;5093353;27;37952;-62
2022/05/13 10:52:02;;;;;;;;;;;17.30;85.10;;;;;;5093508;27;38269;-63
2022/05/13 10:54:37;;;;;;;;;;;17.10;86.40;;;;;;5094563;27;37194;-63
2022/05/13 10:57:09;;;;;;;;;;;17.00;86.30;;;;;;5093822;27;37685;-63
2022/05/13 10:59:40;;;;;;;;;;;17.00;86.90;;;;;;5093150;27;37685;-63
2022/05/13 11:02:15;;;;;;;;;;;16.90;87.20;;;;;;5091537;27;37790;-63
2022/05/13 11:04:45;;;;;;;;;;;16.90;87.80;;;;;;5090416;27;36918;-63
2022/05/13 11:07:17;;;;;;;;;;;16.80;87.40;;;;;;5091635;27;37295;-62
2022/05/13 11:09:47;;;;;;;;;;;16.70;87.70;;;;;;5093151;27;39060;-63
2022/05/13 11:12:19;;;;;;;;;;;16.60;88.40;;;;;;5092489;27;37247;-62
2022/05/13 11:14:58;;;;;;;;;;;16.50;89.40;;;;;;5093283;27;37270;-62
2022/05/13 11:17:32;;;;;;;;;;;16.50;89.60;;;;;;5091899;27;38267;-62
2022/05/13 11:20:04;;;;;;;;;;;16.50;89.10;;;;;;5089439;27;39274;-62
2022/05/13 11:22:47;;;;;;;;;;;16.50;89.80;;;;;;5092703;27;37090;-62
2022/05/13 11:28:14;;;;;;;;;;;16.40;90.20;;;;;;5092352;27;37526;-62
2022/05/13 11:30:44;;;;;;;;;;;16.40;91.00;;;;;;5091979;27;36337;-62
2022/05/13 11:33:19;;;;;;;;;;;16.40;90.80;;;;;;5091297;27;39215;-62
2022/05/13 11:35:53;;;;;;;;;;;16.30;91.20;;;;;;5091936;27;37452;-62
2022/05/13 11:38:23;;;;;;;;;;;16.30;91.30;;;;;;5091651;27;37985;-62
2022/05/13 11:40:54;;;;;;;;;;;16.40;91.20;;;;;;5092956;27;38980;-62
2022/05/13 11:43:34;;;;;;;;;;;16.40;90.90;;;;;;5092120;27;37219;-63
2022/05/13 11:46:19;;;;;;;;;;;16.50;91.30;;;;;;5093123;27;36549;-62
2022/05/13 11:48:47;;;;;;;;;;;16.80;91.90;;;;;;5085593;27;37788;-62
2022/05/13 11:51:16;;;;;;;;;;;17.10;91.30;;;;;;5092176;27;39691;-62
2022/05/13 11:53:46;;;;;;;;;;;17.20;90.30;;;;;;5092458;27;38643;-62
2022/05/13 11:56:14;;;;;;;;;;;17.20;88.00;;;;;;5092453;27;36457;-62
2022/05/13 11:58:45;;;;;;;;;;;17.20;88.00;;;;;;5092074;27;38679;-62
2022/05/13 12:01:13;;;;;;;;;;;17.10;88.50;;;;;;5090753;27;38623;-63
2022/05/13 12:03:40;;;;;;;;;;;17.00;87.00;;;;;;5089444;27;35964;-62
2022/05/13 12:06:08;;;;;;;;;;;16.90;86.70;;;;;;5089360;27;36076;-63
2022/05/13 12:08:43;;;;;;;;;;;16.90;87.50;;;;;;5090292;27;37820;-62
2022/05/13 12:11:27;;;;;;;;;;;16.90;86.70;;;;;;5089973;27;37830;-62
2022/05/13 12:14:01;;;;;;;;;;;16.80;88.50;;;;;;5092565;27;37439;-62
2022/05/13 12:16:33;;;;;;;;;;;16.70;89.10;;;;;;5091687;27;36600;-62
2022/05/13 12:19:10;;;;;;;;;;;16.70;89.30;;;;;;5090398;27;37766;-62
2022/05/13 12:21:42;;;;;;;;;;;16.70;90.10;;;;;;5091956;27;38312;-62
2022/05/13 12:24:16;;;;;;;;;;;16.80;91.00;;;;;;5092925;27;37161;-62
2022/05/13 12:27:07;;;;;;;;;;;16.90;91.40;;;;;;5092521;27;37058;-62
2022/05/13 12:29:44;;;;;;;;;;;17.00;90.40;;;;;;5092079;27;37643;-62
2022/05/13 12:32:19;;;;;;;;;;;16.90;87.00;;;;;;5094544;27;40550;-63
2022/05/13 12:37:41;;;;;;;;;;;17.10;90.00;;;;;;5095280;27;37456;-62
2022/05/13 12:40:13;;;;;;;;;;;17.20;89.30;;;;;;5095264;27;37393;-62
2022/05/13 12:42:44;;;;;;;;;;;17.30;86.80;;;;;;5095885;27;36775;-63
2022/05/13 12:45:13;;;;;;;;;;;17.30;87.00;;;;;;5095449;27;35952;-62
2022/05/13 12:47:57;;;;;;;;;;;17.30;85.00;;;;;;5093982;27;36516;-62
2022/05/13 12:50:28;;;;;;;;;;;17.20;83.70;;;;;;5093675;27;37890;-63
2022/05/13 12:52:55;;;;;;;;;;;17.20;82.20;;;;;;5095685;27;38638;-63
2022/05/13 12:55:24;;;;;;;;;;;17.20;83.60;;;;;;5096108;27;37493;-63
2022/05/13 12:57:52;;;;;;;;;;;17.10;84.50;;;;;;5095451;27;36623;-64
2022/05/13 13:00:22;;;;;;;;;;;17.10;87.90;;;;;;5095194;27;37750;-57
2022/05/13 13:02:50;;;;;;;;;;;17.20;86.40;;;;;;5095432;27;36679;-57
2022/05/13 13:05:20;;;;;;;;;;;17.20;88.30;;;;;;5095115;27;37398;-57
2022/05/13 13:07:47;;;;;;;;;;;17.30;89.30;;;;;;5091626;27;35961;-57
2022/05/13 13:10:18;;;;;;;;;;;17.40;90.10;;;;;;5095140;27;37740;-57
2022/05/13 13:12:54;;;;;;;;;;;17.50;87.10;;;;;;5094928;27;38200;-57
2022/05/13 13:15:24;;;;;;;;;;;17.60;86.50;;;;;;5095393;27;38340;-56
2022/05/13 13:17:55;;;;;;;;;;;17.70;85.20;;;;;;5096153;27;38720;-57
2022/05/13 13:20:22;;;;;;;;;;;17.70;83.90;;;;;;5093429;27;38257;-57
2022/05/13 13:22:51;;;;;;;;;;;17.60;82.30;;;;;;5094339;27;37898;-57
2022/05/13 13:25:25;;;;;;;;;;;17.60;84.20;;;;;;5092891;27;37602;-57
2022/05/13 13:27:53;;;;;;;;;;;17.60;82.40;;;;;;5092686;27;37916;-57
2022/05/13 13:30:21;;;;;;;;;;;17.60;82.00;;;;;;5093266;27;36621;-57
2022/05/13 13:32:51;;;;;;;;;;;17.60;81.70;;;;;;5094875;27;38184;-57
2022/05/13 13:35:27;;;;;;;;;;;17.60;82.80;;;;;;5094123;27;36055;-57
2022/05/13 13:37:54;;;;;;;;;;;17.60;81.30;;;;;;5094488;27;36365;-57
2022/05/13 13:40:22;;;;;;;;;;;17.50;81.90;;;;;;5093832;27;37517;-57
2022/05/13 13:42:50;;;;;;;;;;;17.50;83.70;;;;;;5093677;27;36719;-57
2022/05/13 13:45:20;;;;;;;;;;;17.50;85.00;;;;;;5094816;27;35933;-57
2022/05/13 13:47:48;;;;;;;;;;;17.50;84.60;;;;;;5094638;27;36860;-58
2022/05/13 13:50:21;;;;;;;;;;;17.50;84.30;;;;;;5094365;27;36588;-57
2022/05/13 13:52:50;;;;;;;;;;;17.40;81.90;;;;;;5094664;27;38569;-57
2022/05/13 13:55:20;;;;;;;;;;;17.20;84.20;;;;;;5094728;27;39844;-57
2022/05/13 13:58:11;;;;;;;;;;;17.20;84.20;;;;;;5094461;27;37725;-57
2022/05/13 14:00:39;;;;;;;;;;;17.10;85.60;;;;;;5078145;27;37302;-57
2022/05/13 14:03:07;;;;;;;;;;;17.10;84.50;;;;;;5093180;27;39684;-57
2022/05/13 14:05:38;;;;;;;;;;;17.10;85.60;;;;;;5093035;27;37838;-56
2022/05/13 14:08:05;;;;;;;;;;;17.00;86.30;;;;;;5093941;27;37704;-57
2022/05/13 14:10:34;;;;;;;;;;;17.00;87.50;;;;;;5092767;27;39689;-57
2022/05/13 14:13:04;;;;;;;;;;;17.10;85.80;;;;;;5093235;27;40639;-57
2022/05/13 14:15:33;;;;;;;;;;;17.00;86.50;;;;;;5091336;27;37112;-56
2022/05/13 14:18:00;;;;;;;;;;;17.00;85.90;;;;;;5088374;27;36451;-57
2022/05/13 14:20:31;;;;;;;;;;;17.00;85.80;;;;;;5091758;27;38932;-57
2022/05/13 14:23:07;;;;;;;;;;;17.00;86.10;;;;;;5092135;27;39075;-57
2022/05/13 14:25:35;;;;;;;;;;;17.00;84.60;;;;;;5093445;27;38658;-57
2022/05/13 14:28:02;;;;;;;;;;;16.90;84.90;;;;;;5094416;27;36466;-57
2022/05/13 14:30:32;;;;;;;;;;;16.90;85.40;;;;;;5092964;27;37556;-57
2022/05/13 14:32:59;;;;;;;;;;;16.90;85.00;;;;;;5093890;27;38804;-57
2022/05/13 14:35:27;;;;;;;;;;;16.80;84.50;;;;;;5093357;27;36732;-56
2022/05/13 14:37:55;;;;;;;;;;;16.90;85.90;;;;;;5093047;27;35975;-57
2022/05/13 14:40:26;;;;;;;;;;;16.80;84.80;;;;;;5094041;27;38003;-57
2022/05/13 14:42:55;;;;;;;;;;;16.80;85.70;;;;;;5093262;27;38902;-57
2022/05/13 14:45:24;;;;;;;;;;;16.80;86.60;;;;;;5093336;27;37856;-57
2022/05/13 14:47:52;;;;;;;;;;;16.80;87.60;;;;;;5089167;27;37137;-57
2022/05/13 14:50:21;;;;;;;;;;;16.80;87.50;;;;;;5089706;27;37737;-56
2022/05/13 14:52:50;;;;;;;;;;;16.90;86.60;;;;;;5091881;27;38501;-57
2022/05/13 14:55:23;;;;;;;;;;;16.90;84.50;;;;;;5092091;27;37454;-57